createdAt,value
2022-08-28T00:01:07.104Z,59.81
2022-08-28T00:03:37.630Z,59.83
2022-08-28T00:06:06.703Z,59.44
2022-08-28T00:08:34.641Z,59.72
2022-08-28T00:11:02.682Z,59.95
2022-08-28T00:13:30.591Z,59.60
2022-08-28T00:16:01.059Z,59.66
2022-08-28T00:18:29.243Z,59.99
2022-08-28T00:20:58.645Z,60.10
2022-08-28T00:23:42.585Z,59.68
2022-08-28T00:26:11.409Z,59.44
2022-08-28T00:28:38.354Z,60.14
2022-08-28T00:31:07.020Z,59.87
2022-08-28T00:33:35.625Z,59.76
2022-08-28T00:36:05.183Z,59.97
2022-08-28T00:38:33.281Z,59.59
2022-08-28T00:41:03.731Z,60.05
2022-08-28T00:43:37.153Z,59.88
2022-08-28T00:46:06.110Z,60.21
2022-08-28T00:48:34.215Z,59.65
2022-08-28T00:51:19.601Z,59.63
2022-08-28T00:53:48.964Z,59.79
2022-08-28T00:56:17.073Z,59.88
2022-08-28T00:58:45.473Z,60.53
2022-08-28T01:01:13.751Z,60.17
2022-08-28T01:03:41.721Z,60.29
2022-08-28T01:06:09.687Z,59.76
2022-08-28T01:08:37.969Z,59.76
2022-08-28T01:11:07.507Z,60.49
2022-08-28T01:13:35.691Z,59.75
2022-08-28T01:16:04.125Z,59.79
2022-08-28T01:18:32.361Z,60.31
2022-08-28T01:21:02.826Z,59.76
2022-08-28T01:23:53.382Z,60.28
2022-08-28T01:26:21.436Z,60.23
2022-08-28T01:28:49.386Z,59.93
2022-08-28T01:31:17.567Z,59.98
2022-08-28T01:33:45.729Z,60.26
2022-08-28T01:36:14.159Z,59.80
2022-08-28T01:38:42.676Z,59.77
2022-08-28T01:41:12.218Z,59.99
2022-08-28T01:43:40.237Z,60.19
2022-08-28T01:46:09.933Z,59.94
2022-08-28T01:48:39.638Z,59.90
2022-08-28T01:51:07.708Z,60.35
2022-08-28T01:53:35.682Z,59.85
2022-08-28T01:56:04.877Z,60.27
2022-08-28T01:58:38.108Z,60.42
2022-08-28T02:01:09.821Z,60.05
2022-08-28T02:03:37.828Z,59.99
2022-08-28T02:06:05.985Z,60.41
2022-08-28T02:08:33.917Z,60.42
2022-08-28T02:11:02.129Z,60.36
2022-08-28T02:13:30.061Z,60.50
2022-08-28T02:15:59.732Z,60.23
2022-08-28T02:18:27.768Z,60.13
2022-08-28T02:20:55.677Z,60.10
2022-08-28T02:23:23.657Z,60.08
2022-08-28T02:25:51.587Z,60.50
2022-08-28T02:28:19.502Z,60.57
2022-08-28T02:30:47.493Z,60.46
2022-08-28T02:33:17.278Z,60.60
2022-08-28T02:35:45.191Z,60.38
2022-08-28T02:38:13.713Z,60.60
2022-08-28T02:40:42.338Z,60.22
2022-08-28T02:43:10.287Z,60.22
2022-08-28T02:45:38.231Z,60.48
2022-08-28T02:48:11.963Z,60.18
2022-08-28T02:50:46.273Z,60.48
2022-08-28T02:53:14.229Z,60.13
2022-08-28T02:55:42.132Z,60.62
2022-08-28T02:58:10.251Z,60.22
2022-08-28T03:00:38.170Z,60.44
2022-08-28T03:03:06.448Z,60.68
2022-08-28T03:05:34.390Z,60.60
2022-08-28T03:08:04.047Z,60.67
2022-08-28T03:10:32.016Z,60.71
2022-08-28T03:12:59.995Z,60.24
2022-08-28T03:15:27.922Z,60.47
2022-08-28T03:17:56.114Z,60.51
2022-08-28T03:20:24.096Z,60.64
2022-08-28T03:23:09.389Z,60.29
2022-08-28T03:25:38.715Z,60.23
2022-08-28T03:28:06.740Z,60.70
2022-08-28T03:30:34.823Z,60.31
2022-08-28T03:33:03.109Z,60.61
2022-08-28T03:35:31.040Z,60.11
2022-08-28T03:37:58.960Z,60.46
2022-08-28T03:40:27.203Z,60.20
2022-08-28T03:42:56.554Z,60.22
2022-08-28T03:45:24.556Z,60.62
2022-08-28T03:47:53.674Z,60.78
2022-08-28T03:50:21.782Z,60.10
2022-08-28T03:52:49.749Z,60.29
2022-08-28T03:55:18.899Z,60.68
2022-08-28T03:57:47.020Z,60.63
2022-08-28T04:00:17.121Z,60.26
2022-08-28T04:02:46.255Z,60.06
2022-08-28T04:05:14.439Z,60.12
2022-08-28T04:07:42.487Z,60.59
2022-08-28T04:10:12.200Z,60.70
2022-08-28T04:12:40.242Z,60.15
2022-08-28T04:15:09.501Z,60.39
2022-08-28T04:17:39.958Z,60.28
2022-08-28T04:20:08.829Z,60.30
2022-08-28T04:22:37.223Z,60.71
2022-08-28T04:25:05.688Z,60.27
2022-08-28T04:27:33.678Z,60.16
2022-08-28T04:30:01.715Z,60.53
2022-08-28T04:32:29.633Z,60.15
2022-08-28T04:34:59.038Z,60.52
2022-08-28T04:37:27.975Z,60.66
2022-08-28T04:39:56.080Z,60.29
2022-08-28T04:42:24.052Z,60.60
2022-08-28T04:44:52.102Z,60.65
2022-08-28T04:47:23.706Z,60.54
2022-08-28T04:49:51.777Z,60.63
2022-08-28T04:52:21.247Z,60.19
2022-08-28T04:54:49.646Z,60.26
2022-08-28T04:57:17.551Z,60.31
2022-08-28T04:59:45.812Z,60.53
2022-08-28T05:02:13.904Z,60.05
2022-08-28T05:04:41.935Z,60.37
2022-08-28T05:07:09.838Z,60.31
2022-08-28T05:09:39.443Z,60.38
2022-08-28T05:12:07.546Z,60.34
2022-08-28T05:14:35.453Z,59.91
2022-08-28T05:17:03.392Z,60.20
2022-08-28T05:19:31.406Z,59.57
2022-08-28T05:21:59.303Z,59.72
2022-08-28T05:24:27.214Z,59.54
2022-08-28T05:26:57.543Z,59.86
2022-08-28T05:29:25.670Z,60.10
2022-08-28T05:31:53.630Z,59.51
2022-08-28T05:34:21.896Z,59.76
2022-08-28T05:36:49.991Z,59.61
2022-08-28T05:39:17.916Z,59.38
2022-08-28T05:41:46.141Z,59.27
2022-08-28T05:44:16.468Z,59.29
2022-08-28T05:46:47.770Z,59.32
2022-08-28T05:49:15.921Z,59.10
2022-08-28T05:51:44.001Z,59.14
2022-08-28T05:54:12.006Z,59.42
2022-08-28T05:56:40.693Z,59.16
2022-08-28T05:59:08.826Z,59.26
2022-08-28T06:01:40.490Z,58.98
2022-08-28T06:04:10.697Z,58.71
2022-08-28T06:06:39.457Z,58.62
2022-08-28T06:09:08.470Z,58.69
2022-08-28T06:11:38.759Z,59.13
2022-08-28T06:14:11.972Z,58.42
2022-08-28T06:16:45.585Z,58.89
2022-08-28T06:19:13.776Z,58.38
2022-08-28T06:21:41.826Z,58.73
2022-08-28T06:24:09.937Z,58.44
2022-08-28T06:26:37.894Z,58.59
2022-08-28T06:29:08.848Z,58.58
2022-08-28T06:31:36.896Z,57.99
2022-08-28T06:34:06.795Z,57.90
2022-08-28T06:36:35.523Z,57.93
2022-08-28T06:39:03.699Z,57.92
2022-08-28T06:41:32.326Z,57.81
2022-08-28T06:44:00.338Z,58.30
2022-08-28T06:46:30.391Z,58.25
2022-08-28T06:48:58.425Z,57.61
2022-08-28T06:51:27.710Z,57.78
2022-08-28T06:53:55.776Z,57.70
2022-08-28T06:56:26.157Z,57.44
2022-08-28T06:58:55.724Z,57.72
2022-08-28T07:01:25.440Z,56.94
2022-08-28T07:03:54.415Z,57.51
2022-08-28T07:06:22.823Z,56.83
2022-08-28T07:08:52.163Z,56.55
2022-08-28T07:11:21.970Z,57.05
2022-08-28T07:13:54.214Z,56.75
2022-08-28T07:16:23.651Z,56.87
2022-08-28T07:18:51.640Z,57.52
2022-08-28T07:21:20.539Z,56.93
2022-08-28T07:23:48.643Z,56.71
2022-08-28T07:26:19.162Z,56.63
2022-08-28T07:28:47.379Z,56.40
2022-08-28T07:31:16.409Z,56.19
2022-08-28T07:33:44.474Z,56.63
2022-08-28T07:36:28.850Z,56.62
2022-08-28T07:38:59.129Z,55.99
2022-08-28T07:41:29.181Z,56.26
2022-08-28T07:44:14.653Z,56.19
2022-08-28T07:46:42.614Z,56.38
2022-08-28T07:49:10.721Z,56.65
2022-08-28T07:51:38.660Z,56.51
2022-08-28T07:54:06.715Z,56.42
2022-08-28T07:56:40.929Z,56.06
2022-08-28T07:59:09.488Z,56.53
2022-08-28T08:01:39.069Z,55.81
2022-08-28T08:04:07.539Z,55.91
2022-08-28T08:06:35.658Z,55.56
2022-08-28T08:09:03.897Z,55.83
2022-08-28T08:11:32.428Z,55.61
2022-08-28T08:14:05.348Z,55.60
2022-08-28T08:16:34.693Z,55.26
2022-08-28T08:19:02.644Z,55.08
2022-08-28T08:21:30.872Z,55.31
2022-08-28T08:23:59.000Z,55.49
2022-08-28T08:26:28.139Z,55.80
2022-08-28T08:28:56.323Z,56.00
2022-08-28T08:31:26.644Z,56.10
2022-08-28T08:33:56.178Z,55.99
2022-08-28T08:36:24.701Z,55.28
2022-08-28T08:38:59.067Z,56.02
2022-08-28T08:41:30.333Z,55.48
2022-08-28T08:44:00.864Z,56.16
2022-08-28T08:46:34.286Z,55.73
2022-08-28T08:49:03.819Z,56.06
2022-08-28T08:51:40.493Z,55.23
2022-08-28T08:54:11.291Z,56.00
2022-08-28T08:56:40.346Z,56.00
2022-08-28T08:59:09.074Z,55.76
2022-08-28T09:01:41.123Z,56.04
2022-08-28T09:04:15.914Z,55.72
2022-08-28T09:06:48.609Z,55.86
2022-08-28T09:09:19.313Z,55.24
2022-08-28T09:11:51.081Z,55.12
2022-08-28T09:14:29.561Z,55.42
2022-08-28T09:16:59.092Z,55.24
2022-08-28T09:19:27.024Z,55.17
2022-08-28T09:21:54.995Z,54.90
2022-08-28T09:24:24.612Z,54.76
2022-08-28T09:26:56.354Z,55.36
2022-08-28T09:29:27.959Z,54.79
2022-08-28T09:31:56.251Z,55.08
2022-08-28T09:34:33.377Z,55.28
2022-08-28T09:37:03.561Z,55.54
2022-08-28T09:39:32.048Z,55.43
2022-08-28T09:42:21.231Z,55.62
2022-08-28T09:44:57.415Z,55.64
2022-08-28T09:47:46.750Z,55.50
2022-08-28T09:50:34.909Z,55.15
2022-08-28T09:53:18.914Z,54.83
2022-08-28T09:55:52.908Z,54.73
2022-08-28T09:58:21.173Z,54.33
2022-08-28T10:00:52.363Z,54.66
2022-08-28T10:03:23.064Z,54.37
2022-08-28T10:05:58.344Z,54.31
2022-08-28T10:08:32.478Z,54.41
2022-08-28T10:11:01.918Z,54.36
2022-08-28T10:13:31.423Z,53.87
2022-08-28T10:16:23.024Z,54.71
2022-08-28T10:18:54.207Z,54.34
2022-08-28T10:21:26.025Z,53.93
2022-08-28T10:24:12.618Z,54.25
2022-08-28T10:26:43.996Z,53.99
2022-08-28T10:29:22.537Z,54.49
2022-08-28T10:31:52.661Z,54.19
2022-08-28T10:34:34.335Z,53.73
2022-08-28T10:37:08.351Z,54.27
2022-08-28T10:39:43.341Z,54.25
2022-08-28T10:42:11.326Z,53.02
2022-08-28T10:44:41.783Z,53.57
2022-08-28T10:47:09.849Z,54.26
2022-08-28T10:49:39.024Z,53.66
2022-08-28T10:52:10.022Z,53.26
2022-08-28T10:54:41.102Z,53.31
2022-08-28T10:57:36.144Z,53.35
2022-08-28T11:00:09.566Z,53.34
2022-08-28T11:02:37.699Z,53.21
2022-08-28T11:05:06.440Z,53.36
2022-08-28T11:07:37.160Z,53.05
2022-08-28T11:10:21.131Z,53.04
2022-08-28T11:12:49.183Z,53.18
2022-08-28T11:15:41.729Z,52.59
2022-08-28T11:18:35.572Z,53.16
2022-08-28T11:21:06.496Z,52.90
2022-08-28T11:23:38.429Z,52.58
2022-08-28T11:26:08.191Z,52.84
2022-08-28T11:28:43.899Z,53.04
2022-08-28T11:31:38.748Z,53.13
2022-08-28T11:34:06.734Z,52.65
2022-08-28T11:36:56.926Z,53.19
2022-08-28T11:39:27.752Z,52.74
2022-08-28T11:42:32.125Z,52.47
2022-08-28T11:45:00.783Z,51.87
2022-08-28T11:47:57.750Z,52.36
2022-08-28T11:50:31.136Z,52.86
2022-08-28T11:53:28.231Z,52.82
2022-08-28T11:56:39.395Z,53.11
2022-08-28T11:59:19.388Z,53.05
2022-08-28T12:01:49.804Z,52.97
2022-08-28T12:04:18.412Z,52.87
2022-08-28T12:06:54.448Z,53.15
2022-08-28T12:09:43.270Z,52.57
2022-08-28T12:12:53.385Z,52.56
2022-08-28T12:15:41.603Z,52.83
2022-08-28T12:18:16.021Z,53.06
2022-08-28T12:21:01.164Z,52.36
2022-08-28T12:23:40.957Z,53.05
2022-08-28T12:26:11.275Z,52.60
2022-08-28T12:28:46.469Z,52.61
2022-08-28T12:31:59.755Z,52.80
2022-08-28T12:34:33.416Z,51.88
2022-08-28T12:37:02.110Z,52.45
2022-08-28T12:39:30.567Z,52.05
2022-08-28T12:41:58.881Z,52.43
2022-08-28T12:44:29.784Z,52.29
2022-08-28T12:46:57.738Z,52.75
2022-08-28T12:49:31.459Z,52.63
2022-08-28T12:52:10.530Z,52.42
2022-08-28T12:54:38.466Z,52.24
2022-08-28T12:57:07.900Z,52.36
2022-08-28T12:59:38.522Z,52.56
2022-08-28T13:02:08.270Z,51.85
2022-08-28T13:04:37.270Z,51.78
2022-08-28T13:07:08.763Z,51.95
2022-08-28T13:09:36.740Z,52.18
2022-08-28T13:12:07.230Z,51.68
2022-08-28T13:14:41.940Z,50.99
2022-08-28T13:17:09.873Z,51.93
2022-08-28T13:19:38.039Z,51.20
2022-08-28T13:22:08.468Z,51.72
2022-08-28T13:24:47.050Z,51.40
2022-08-28T13:27:20.452Z,51.13
2022-08-28T13:30:06.118Z,51.06
2022-08-28T13:32:34.898Z,50.90
2022-08-28T13:35:38.054Z,50.84
2022-08-28T13:38:08.259Z,50.90
2022-08-28T13:40:58.520Z,50.78
2022-08-28T13:43:29.345Z,50.54
2022-08-28T13:45:58.892Z,51.22
2022-08-28T13:48:27.522Z,50.88
2022-08-28T13:50:58.241Z,50.97
2022-08-28T13:53:26.209Z,52.05
2022-08-28T13:55:54.163Z,52.06
2022-08-28T13:58:22.116Z,51.65
2022-08-28T14:00:50.609Z,51.41
2022-08-28T14:03:38.275Z,51.11
2022-08-28T14:06:08.214Z,51.39
2022-08-28T14:08:36.179Z,51.55
2022-08-28T14:11:04.387Z,52.29
2022-08-28T14:13:32.442Z,52.20
2022-08-28T14:16:00.386Z,52.43
2022-08-28T14:18:29.746Z,52.72
2022-08-28T14:20:57.803Z,52.53
2022-08-28T14:23:25.723Z,51.80
2022-08-28T14:25:53.651Z,52.14
2022-08-28T14:28:21.596Z,52.13
2022-08-28T14:30:50.897Z,51.82
2022-08-28T14:33:20.762Z,52.17
2022-08-28T14:35:50.592Z,51.88
2022-08-28T14:38:18.557Z,52.23
2022-08-28T14:40:46.482Z,51.65
2022-08-28T14:43:14.758Z,51.10
2022-08-28T14:45:43.825Z,49.90
2022-08-28T14:48:11.838Z,49.09
2022-08-28T14:50:41.138Z,49.87
2022-08-28T14:53:10.813Z,50.58
2022-08-28T14:55:42.415Z,50.90
2022-08-28T14:58:10.517Z,51.18
2022-08-28T15:00:42.255Z,51.20
2022-08-28T15:03:10.561Z,51.34
2022-08-28T15:05:38.635Z,51.97
2022-08-28T15:08:07.987Z,52.30
2022-08-28T15:10:38.336Z,52.11
2022-08-28T15:13:07.672Z,52.51
2022-08-28T15:15:36.712Z,52.43
2022-08-28T15:18:04.827Z,52.24
2022-08-28T15:20:33.400Z,51.63
2022-08-28T15:23:01.834Z,51.97
2022-08-28T15:25:29.768Z,52.25
2022-08-28T15:27:59.048Z,51.94
2022-08-28T15:30:26.990Z,51.99
2022-08-28T15:32:54.965Z,51.96
2022-08-28T15:35:22.906Z,51.74
2022-08-28T15:37:51.439Z,52.10
2022-08-28T15:40:36.945Z,51.81
2022-08-28T15:43:06.326Z,51.52
2022-08-28T15:45:37.395Z,51.88
2022-08-28T15:48:05.658Z,51.49
2022-08-28T15:50:33.632Z,51.14
2022-08-28T15:53:01.741Z,50.84
2022-08-28T15:55:30.259Z,51.27
2022-08-28T15:57:58.234Z,51.69
2022-08-28T16:00:27.579Z,51.32
2022-08-28T16:02:59.863Z,51.94
2022-08-28T16:05:31.285Z,51.85
2022-08-28T16:07:59.486Z,51.83
2022-08-28T16:10:27.408Z,52.31
2022-08-28T16:12:57.680Z,51.88
2022-08-28T16:15:27.772Z,52.03
2022-08-28T16:17:55.776Z,52.57
2022-08-28T16:20:24.458Z,52.44
2022-08-28T16:22:53.054Z,51.95
2022-08-28T16:25:20.964Z,53.11
2022-08-28T16:27:48.913Z,53.01
2022-08-28T16:30:16.908Z,53.18
2022-08-28T16:32:46.933Z,52.75
2022-08-28T16:35:15.980Z,53.22
2022-08-28T16:37:44.154Z,52.89
2022-08-28T16:40:12.757Z,53.39
2022-08-28T16:42:51.663Z,53.68
2022-08-28T16:45:20.399Z,53.40
2022-08-28T16:47:50.162Z,53.64
2022-08-28T16:50:18.321Z,53.84
2022-08-28T16:52:46.419Z,53.62
2022-08-28T16:55:14.420Z,53.19
2022-08-28T16:57:42.567Z,54.01
2022-08-28T17:00:12.577Z,53.67
2022-08-28T17:02:41.712Z,53.99
2022-08-28T17:05:11.718Z,53.81
2022-08-28T17:07:40.219Z,53.71
2022-08-28T17:10:09.328Z,54.39
2022-08-28T17:12:37.283Z,54.31
2022-08-28T17:15:06.103Z,54.04
2022-08-28T17:17:34.159Z,54.27
2022-08-28T17:20:02.495Z,54.55
2022-08-28T17:22:31.971Z,54.01
2022-08-28T17:25:01.504Z,54.12
2022-08-28T17:27:29.966Z,54.23
2022-08-28T17:29:58.226Z,54.78
2022-08-28T17:32:26.178Z,54.52
2022-08-28T17:34:54.164Z,54.60
2022-08-28T17:37:23.741Z,54.53
2022-08-28T17:39:53.618Z,54.96
2022-08-28T17:42:21.586Z,55.10
2022-08-28T17:44:49.494Z,54.77
2022-08-28T17:47:17.547Z,54.63
2022-08-28T17:49:49.670Z,54.99
2022-08-28T17:52:17.611Z,54.69
2022-08-28T17:54:45.570Z,54.64
2022-08-28T17:57:16.633Z,55.09
2022-08-28T17:59:44.642Z,54.84
2022-08-28T18:02:16.693Z,55.28
2022-08-28T18:04:44.674Z,55.25
2022-08-28T18:07:13.086Z,55.25
2022-08-28T18:09:41.021Z,55.39
2022-08-28T18:12:12.658Z,55.34
2022-08-28T18:14:42.200Z,55.02
2022-08-28T18:17:10.841Z,55.46
2022-08-28T18:19:40.123Z,55.64
2022-08-28T18:22:09.027Z,55.47
2022-08-28T18:24:36.975Z,55.59
2022-08-28T18:27:05.327Z,54.99
2022-08-28T18:29:33.260Z,55.46
2022-08-28T18:32:03.003Z,55.39
2022-08-28T18:34:31.677Z,55.71
2022-08-28T18:36:59.661Z,55.27
2022-08-28T18:39:29.363Z,55.23
2022-08-28T18:41:58.096Z,55.74
2022-08-28T18:44:26.066Z,55.86
2022-08-28T18:46:54.139Z,55.37
2022-08-28T18:49:23.479Z,55.57
2022-08-28T18:51:51.418Z,55.42
2022-08-28T18:54:20.240Z,55.57
2022-08-28T18:56:48.735Z,55.32
2022-08-28T18:59:18.404Z,55.60
2022-08-28T19:01:46.414Z,55.88
2022-08-28T19:04:14.512Z,55.93
2022-08-28T19:06:44.399Z,55.80
2022-08-28T19:09:20.469Z,55.54
2022-08-28T19:11:48.949Z,55.61
2022-08-28T19:14:16.915Z,55.88
2022-08-28T19:16:44.860Z,55.91
2022-08-28T19:19:12.839Z,55.74
2022-08-28T19:21:40.780Z,55.97
2022-08-28T19:24:10.125Z,55.93
2022-08-28T19:26:38.685Z,55.52
2022-08-28T19:29:07.338Z,55.88
2022-08-28T19:31:37.721Z,55.59
2022-08-28T19:34:06.047Z,55.84
2022-08-28T19:36:34.134Z,55.55
2022-08-28T19:39:02.095Z,56.15
2022-08-28T19:41:32.440Z,55.80
2022-08-28T19:44:00.634Z,55.42
2022-08-28T19:46:28.567Z,55.52
2022-08-28T19:48:56.706Z,55.48
2022-08-28T19:51:24.793Z,56.04
2022-08-28T19:53:57.771Z,55.63
2022-08-28T19:56:27.836Z,55.96
2022-08-28T19:58:59.102Z,56.37
2022-08-28T20:01:29.557Z,55.58
2022-08-28T20:03:58.048Z,55.33
2022-08-28T20:06:25.953Z,55.59
2022-08-28T20:08:53.867Z,55.55
2022-08-28T20:11:25.036Z,55.54
2022-08-28T20:13:53.176Z,55.97
2022-08-28T20:16:22.561Z,55.94
2022-08-28T20:18:51.146Z,55.77
2022-08-28T20:21:25.854Z,55.78
2022-08-28T20:24:05.863Z,56.14
2022-08-28T20:26:33.753Z,55.72
2022-08-28T20:29:01.663Z,55.92
2022-08-28T20:31:30.969Z,55.87
2022-08-28T20:33:59.039Z,56.08
2022-08-28T20:36:27.313Z,55.96
2022-08-28T20:38:55.534Z,56.09
2022-08-28T20:41:23.811Z,55.58
2022-08-28T20:43:51.773Z,56.38
2022-08-28T20:46:20.121Z,56.12
2022-08-28T20:48:49.580Z,56.12
2022-08-28T20:51:17.524Z,56.46
2022-08-28T20:53:45.586Z,56.05
2022-08-28T20:56:13.532Z,56.19
2022-08-28T20:58:41.544Z,56.18
2022-08-28T21:01:09.559Z,56.37
2022-08-28T21:03:37.477Z,56.37
2022-08-28T21:06:07.185Z,56.81
2022-08-28T21:08:35.161Z,57.16
2022-08-28T21:11:03.472Z,56.89
2022-08-28T21:13:32.362Z,56.61
2022-08-28T21:16:00.321Z,56.69
2022-08-28T21:18:31.343Z,56.90
2022-08-28T21:20:59.226Z,56.82
2022-08-28T21:23:28.615Z,57.29
2022-08-28T21:25:56.595Z,57.00
2022-08-28T21:28:24.542Z,57.32
2022-08-28T21:30:53.989Z,57.36
2022-08-28T21:33:22.010Z,57.35
2022-08-28T21:35:50.164Z,57.53
2022-08-28T21:38:18.179Z,57.74
2022-08-28T21:40:47.543Z,57.53
2022-08-28T21:43:15.540Z,57.78
2022-08-28T21:45:43.448Z,57.91
2022-08-28T21:48:11.458Z,58.02
2022-08-28T21:50:39.358Z,57.70
2022-08-28T21:53:07.863Z,58.05
2022-08-28T21:55:35.807Z,57.54
2022-08-28T21:58:05.141Z,58.06
2022-08-28T22:00:36.076Z,58.19
2022-08-28T22:03:04.354Z,58.22
2022-08-28T22:05:32.267Z,58.26
2022-08-28T22:08:00.226Z,58.07
2022-08-28T22:10:28.251Z,58.34
2022-08-28T22:12:56.536Z,59.06
2022-08-28T22:15:25.836Z,58.63
2022-08-28T22:17:53.771Z,59.20
2022-08-28T22:20:21.743Z,59.09
2022-08-28T22:23:06.950Z,58.86
2022-08-28T22:25:40.716Z,58.79
2022-08-28T22:28:09.189Z,59.16
2022-08-28T22:30:38.643Z,58.97
2022-08-28T22:33:07.980Z,59.18
2022-08-28T22:35:35.886Z,59.37
2022-08-28T22:38:03.820Z,59.17
2022-08-28T22:40:32.652Z,59.54
2022-08-28T22:43:00.685Z,59.52
2022-08-28T22:45:28.696Z,59.57
2022-08-28T22:47:58.008Z,59.79
2022-08-28T22:50:25.973Z,59.20
2022-08-28T22:52:53.950Z,59.45
2022-08-28T22:55:22.189Z,59.46
2022-08-28T22:57:50.188Z,59.23
2022-08-28T23:00:20.216Z,59.58
2022-08-28T23:02:48.216Z,59.37
2022-08-28T23:05:17.893Z,59.34
2022-08-28T23:07:45.860Z,59.35
2022-08-28T23:10:13.804Z,59.69
2022-08-28T23:12:41.920Z,59.44
2022-08-28T23:15:11.876Z,59.68
2022-08-28T23:17:39.818Z,59.68
2022-08-28T23:20:10.803Z,59.78
2022-08-28T23:22:40.277Z,59.48
2022-08-28T23:25:08.983Z,59.86
2022-08-28T23:27:37.047Z,59.74
2022-08-28T23:30:06.659Z,59.55
2022-08-28T23:32:34.617Z,59.97
2022-08-28T23:35:07.032Z,59.92
2022-08-28T23:37:35.700Z,59.33
2022-08-28T23:40:05.624Z,59.82
2022-08-28T23:42:34.058Z,59.86
2022-08-28T23:45:02.000Z,59.86
2022-08-28T23:47:33.127Z,60.04
2022-08-28T23:50:01.504Z,59.74
2022-08-28T23:52:30.591Z,59.77
2022-08-28T23:55:00.033Z,59.91
2022-08-28T23:57:29.612Z,59.75
2022-08-28T23:59:58.010Z,60.12
